Southeast Texas Regional Airport Beaumont,Port Arthur US
ICAO: KBPT
IATA: BPT
Category: Medium
Scheduled Services: Yes

Elevation: 15 ft
TransAlt. 18000 ft.

Airport Communications:
BEAUMONT APP/DEP:121.3
ATIS:126.3
CLNC DEL:118.3
CTAF:119.5
GND:121.9
MONTGOMERY CO RDO:122.2
BEAUMONT TWR:119.5
UNICOM:122.95

KBPT Zoom In..

If you have problems with the map follow the link
https://www.worldairports.se/pages/airport.php?
ICAO=KBPT

Runways:

(A) RW 12 length 6750 ft width 150 ft
ILS 110.15 / hdg 116

(B) RW 16 length 5070 ft width 150 ft
---- / hdg 161

(C) RW 30 length 6750 ft width 150 ft
---- / hdg 296

(D) RW 34 length 5070 ft width 150 ft
---- / hdg 341

Location; KBPT
Day. 20 / Time. 20.53 Zulu
* Altimeter: 29.92
* Temperature: 17° c. 62.6°f.
* Wind from: 020° Speed 10 kn.
Dewpoint: 07° c.
Visibility: 10 Statute Miles.
Clouds: Broken 5500 ft.
Clouds: Broken 8000 ft.

KBPT 202053Z 02010KT 10SM BKN055 BKN080 17/07 A2992 RMK AO2 SLP130 T01720072 56024


Wind From 020°
Speed 10 kn.

 
 
jpsmedia.com for Web Design worldairports.se 2019   terms of use